createdAt,value
2019-03-04T00:01:16.283Z,4.03
2019-03-04T00:03:45.653Z,3.85
2019-03-04T00:06:15.035Z,3.77
2019-03-04T00:08:45.217Z,3.65
2019-03-04T00:11:14.594Z,3.47
2019-03-04T00:13:43.957Z,4.00
2019-03-04T00:16:13.340Z,3.40
2019-03-04T00:18:42.714Z,3.70
2019-03-04T00:21:12.106Z,3.83
2019-03-04T00:23:41.465Z,3.58
2019-03-04T00:26:10.850Z,3.80
2019-03-04T00:28:40.224Z,3.77
2019-03-04T00:31:09.723Z,3.70
2019-03-04T00:33:39.084Z,3.58
2019-03-04T00:36:08.458Z,3.37
2019-03-04T00:38:37.830Z,3.40
2019-03-04T00:41:07.202Z,3.85
2019-03-04T00:43:36.584Z,3.17
2019-03-04T00:46:06.356Z,3.10
2019-03-04T00:48:35.696Z,3.55
2019-03-04T00:51:06.254Z,3.70
2019-03-04T00:53:35.667Z,3.70
2019-03-04T00:56:05.041Z,3.77
2019-03-04T00:58:34.411Z,3.50
2019-03-04T01:01:03.795Z,3.40
2019-03-04T01:03:33.159Z,2.95
2019-03-04T01:06:03.443Z,2.95
2019-03-04T01:08:32.904Z,3.22
2019-03-04T01:11:02.280Z,3.02
2019-03-04T01:13:31.651Z,3.12
2019-03-04T01:16:01.313Z,3.40
2019-03-04T01:18:31.360Z,3.25
2019-03-04T01:21:00.726Z,3.20
2019-03-04T01:23:30.103Z,2.98
2019-03-04T01:25:59.808Z,3.00
2019-03-04T01:28:29.181Z,3.05
2019-03-04T01:30:58.571Z,3.17
2019-03-04T01:33:27.941Z,2.80
2019-03-04T01:35:57.317Z,2.95
2019-03-04T01:38:27.181Z,2.90
2019-03-04T01:40:56.569Z,3.33
2019-03-04T01:43:25.965Z,3.25
2019-03-04T01:45:55.348Z,3.50
2019-03-04T01:48:24.724Z,3.20
2019-03-04T01:50:54.079Z,2.83
2019-03-04T01:53:24.715Z,3.05
2019-03-04T01:55:54.083Z,2.90
2019-03-04T01:58:23.451Z,3.10
2019-03-04T02:00:52.881Z,3.10
2019-03-04T02:03:22.263Z,3.15
2019-03-04T02:05:51.636Z,2.90
2019-03-04T02:08:21.088Z,2.80
2019-03-04T02:10:50.483Z,2.80
2019-03-04T02:13:19.845Z,2.87
2019-03-04T02:15:49.295Z,2.90
2019-03-04T02:18:18.658Z,3.20
2019-03-04T02:20:48.045Z,2.70
2019-03-04T02:23:17.860Z,2.85
2019-03-04T02:25:51.831Z,2.90
2019-03-04T02:28:21.193Z,3.00
2019-03-04T02:30:50.574Z,3.02
2019-03-04T02:33:19.977Z,2.62
2019-03-04T02:35:49.315Z,3.37
2019-03-04T02:38:19.098Z,2.55
2019-03-04T02:40:48.466Z,2.98
2019-03-04T02:43:17.842Z,2.75
2019-03-04T02:45:47.223Z,2.80
2019-03-04T02:48:16.593Z,3.12
2019-03-04T02:50:46.145Z,2.80
2019-03-04T02:53:15.561Z,2.72
2019-03-04T02:55:45.893Z,3.70
2019-03-04T02:58:15.253Z,2.85
2019-03-04T03:00:44.929Z,2.70
2019-03-04T03:03:14.304Z,2.90
2019-03-04T03:05:43.690Z,2.90
2019-03-04T03:08:13.059Z,2.98
2019-03-04T03:10:42.438Z,3.12
2019-03-04T03:13:11.815Z,3.40
2019-03-04T03:15:41.194Z,3.52
2019-03-04T03:18:10.573Z,3.30
2019-03-04T03:20:39.943Z,3.17
2019-03-04T03:23:09.789Z,3.52
2019-03-04T03:25:39.248Z,3.40
2019-03-04T03:28:08.609Z,3.40
2019-03-04T03:30:38.111Z,3.42
2019-03-04T03:33:07.439Z,3.15
2019-03-04T03:35:36.815Z,3.07
2019-03-04T03:38:06.215Z,3.17
2019-03-04T03:40:35.871Z,2.95
2019-03-04T03:43:05.244Z,2.95
2019-03-04T03:45:34.665Z,3.33
2019-03-04T03:48:04.390Z,2.72
2019-03-04T03:50:33.767Z,3.30
2019-03-04T03:53:03.140Z,3.15
2019-03-04T03:55:32.770Z,3.42
2019-03-04T03:58:03.150Z,3.50
2019-03-04T04:00:32.544Z,3.30
2019-03-04T04:03:01.909Z,3.10
2019-03-04T04:05:31.283Z,3.25
2019-03-04T04:08:01.367Z,3.10
2019-03-04T04:10:30.809Z,3.22
2019-03-04T04:13:00.184Z,3.10
2019-03-04T04:15:30.134Z,3.17
2019-03-04T04:17:59.507Z,2.87
2019-03-04T04:20:28.894Z,3.45
2019-03-04T04:22:58.275Z,3.17
2019-03-04T04:25:27.645Z,2.90
2019-03-04T04:27:57.031Z,3.02
2019-03-04T04:30:28.225Z,2.92
2019-03-04T04:32:57.597Z,3.27
2019-03-04T04:35:26.972Z,3.40
2019-03-04T04:37:56.370Z,3.20
2019-03-04T04:40:25.761Z,3.03
2019-03-04T04:42:55.135Z,3.15
2019-03-04T04:45:24.514Z,2.80
2019-03-04T04:47:53.972Z,3.02
2019-03-04T04:50:30.138Z,3.25
2019-03-04T04:52:59.857Z,3.27
2019-03-04T04:55:29.228Z,3.02
2019-03-04T04:57:58.685Z,3.45
2019-03-04T05:00:31.205Z,2.92
2019-03-04T05:03:00.156Z,3.58
2019-03-04T05:05:29.551Z,3.50
2019-03-04T05:07:58.952Z,4.08
2019-03-04T05:10:28.322Z,4.00
2019-03-04T05:12:57.757Z,3.08
2019-03-04T05:15:27.408Z,3.00
2019-03-04T05:17:56.771Z,5.05
2019-03-04T05:20:28.109Z,3.30
2019-03-04T05:22:57.488Z,3.33
2019-03-04T05:25:26.860Z,3.10
2019-03-04T05:27:56.230Z,3.42
2019-03-04T05:30:25.680Z,2.87
2019-03-04T05:32:55.103Z,2.85
2019-03-04T05:35:24.489Z,2.80
2019-03-04T05:37:53.926Z,3.05
2019-03-04T05:40:23.965Z,3.57
2019-03-04T05:42:53.330Z,3.05
2019-03-04T05:45:22.719Z,2.87
2019-03-04T05:47:52.101Z,3.00
2019-03-04T05:50:26.651Z,3.30
2019-03-04T05:52:56.282Z,2.80
2019-03-04T05:55:25.731Z,2.80
2019-03-04T05:57:55.108Z,2.72
2019-03-04T06:00:32.376Z,3.10
2019-03-04T06:03:06.974Z,2.85
2019-03-04T06:05:36.346Z,3.22
2019-03-04T06:08:07.447Z,2.80
2019-03-04T06:10:37.066Z,2.85
2019-03-04T06:13:06.689Z,3.22
2019-03-04T06:15:36.080Z,2.70
2019-03-04T06:18:06.647Z,3.35
2019-03-04T06:20:36.024Z,3.17
2019-03-04T06:23:05.413Z,4.10
2019-03-04T06:25:34.800Z,3.60
2019-03-04T06:28:04.162Z,3.15
2019-03-04T06:30:33.831Z,2.95
2019-03-04T06:33:03.207Z,2.80
2019-03-04T06:35:32.834Z,3.58
2019-03-04T06:38:02.214Z,3.10
2019-03-04T06:40:31.907Z,3.00
2019-03-04T06:43:01.269Z,3.35
2019-03-04T06:45:30.653Z,3.30
2019-03-04T06:48:00.090Z,3.12
2019-03-04T06:50:53.222Z,2.67
2019-03-04T06:53:59.022Z,3.55
2019-03-04T06:56:33.352Z,3.20
2019-03-04T06:59:10.128Z,3.33
2019-03-04T07:01:55.820Z,2.85
2019-03-04T07:04:35.905Z,3.92
2019-03-04T07:07:05.605Z,2.70
2019-03-04T07:09:34.986Z,3.67
2019-03-04T07:12:04.456Z,2.67
2019-03-04T07:14:33.833Z,2.45
2019-03-04T07:17:03.193Z,3.00
2019-03-04T07:19:32.564Z,2.90
2019-03-04T07:22:01.941Z,2.65
2019-03-04T07:24:31.305Z,2.85
2019-03-04T07:27:00.674Z,2.98
2019-03-04T07:29:30.163Z,3.80
2019-03-04T07:31:59.472Z,2.70
2019-03-04T07:34:28.854Z,2.80
2019-03-04T07:36:58.225Z,3.12
2019-03-04T07:39:27.593Z,2.45
2019-03-04T07:41:56.960Z,2.37
2019-03-04T07:44:26.329Z,2.52
2019-03-04T07:46:55.698Z,2.58
2019-03-04T07:49:25.130Z,2.47
2019-03-04T07:51:54.558Z,2.60
2019-03-04T07:54:24.028Z,3.60
2019-03-04T07:56:53.361Z,3.40
2019-03-04T07:59:22.741Z,9.48
2019-03-04T08:01:52.120Z,4.25
2019-03-04T08:04:21.482Z,4.42
2019-03-04T08:06:51.310Z,2.80
2019-03-04T08:09:28.135Z,3.08
2019-03-04T08:12:34.220Z,2.90
2019-03-04T08:15:04.148Z,3.08
2019-03-04T08:17:33.529Z,3.00
2019-03-04T08:20:02.917Z,2.90
2019-03-04T08:22:32.290Z,3.30
2019-03-04T08:25:01.652Z,3.30
2019-03-04T08:27:31.112Z,2.98
2019-03-04T08:30:03.650Z,3.72
2019-03-04T08:32:33.027Z,5.33
2019-03-04T08:35:02.436Z,3.90
2019-03-04T08:37:33.339Z,3.37
2019-03-04T08:40:02.722Z,3.20
2019-03-04T08:42:32.090Z,4.30
2019-03-04T08:45:01.461Z,4.00
2019-03-04T08:47:30.855Z,4.47
2019-03-04T08:50:00.325Z,5.45
2019-03-04T08:52:29.699Z,5.22
2019-03-04T08:54:59.068Z,4.17
2019-03-04T08:57:28.473Z,4.30
2019-03-04T08:59:57.856Z,3.95
2019-03-04T09:02:27.219Z,3.05
2019-03-04T09:04:56.577Z,4.15
2019-03-04T09:07:25.955Z,3.45
2019-03-04T09:09:55.588Z,3.30
2019-03-04T09:12:24.987Z,4.60
2019-03-04T09:14:54.356Z,3.50
2019-03-04T09:17:23.723Z,3.90
2019-03-04T09:19:53.392Z,2.65
2019-03-04T09:22:22.767Z,3.15
2019-03-04T09:24:52.127Z,2.87
2019-03-04T09:27:21.512Z,3.08
2019-03-04T09:29:51.214Z,2.70
2019-03-04T09:32:20.576Z,2.67
2019-03-04T09:34:49.943Z,2.37
2019-03-04T09:37:19.314Z,1.87
2019-03-04T09:39:48.680Z,2.58
2019-03-04T09:42:18.986Z,2.40
2019-03-04T09:44:48.413Z,2.12
2019-03-04T09:47:17.760Z,3.27
2019-03-04T09:49:47.146Z,3.10
2019-03-04T09:52:16.523Z,2.60
2019-03-04T09:54:45.881Z,2.27
2019-03-04T09:57:15.377Z,2.87
2019-03-04T09:59:46.955Z,3.02
2019-03-04T10:02:15.866Z,2.42
2019-03-04T10:05:08.080Z,2.22
2019-03-04T10:07:53.865Z,2.05
2019-03-04T10:10:55.017Z,2.57
2019-03-04T10:13:43.635Z,3.00
2019-03-04T10:16:44.618Z,6.58
2019-03-04T10:19:50.608Z,3.47
2019-03-04T10:22:24.637Z,2.90
2019-03-04T10:25:24.301Z,2.67
2019-03-04T10:28:47.737Z,2.72
2019-03-04T10:31:33.860Z,2.45
2019-03-04T10:34:39.812Z,2.22
2019-03-04T10:37:43.667Z,2.25
2019-03-04T10:40:34.300Z,2.47
2019-03-04T10:43:51.703Z,2.08
2019-03-04T10:46:54.535Z,2.15
2019-03-04T10:49:25.421Z,2.30
2019-03-04T10:51:55.006Z,2.00
2019-03-04T10:54:24.776Z,3.00
2019-03-04T10:56:54.155Z,2.72
2019-03-04T10:59:23.526Z,2.25
2019-03-04T11:01:52.929Z,1.90
2019-03-04T11:04:22.301Z,2.20
2019-03-04T11:06:51.671Z,2.10
2019-03-04T11:09:21.045Z,1.62
2019-03-04T11:11:50.410Z,1.90
2019-03-04T11:14:20.002Z,1.85
2019-03-04T11:16:49.415Z,1.72
2019-03-04T11:19:19.101Z,2.05
2019-03-04T11:21:48.480Z,1.82
2019-03-04T11:24:18.362Z,1.62
2019-03-04T11:26:47.801Z,1.45
2019-03-04T11:29:17.174Z,1.70
2019-03-04T11:31:46.559Z,0.90
2019-03-04T11:34:15.942Z,0.70
2019-03-04T11:36:45.307Z,0.70
2019-03-04T11:39:21.960Z,1.12
2019-03-04T11:41:51.337Z,0.78
2019-03-04T11:44:20.700Z,0.95
2019-03-04T11:46:50.094Z,0.65
2019-03-04T11:49:19.446Z,0.70
2019-03-04T11:51:48.813Z,0.80
2019-03-04T11:54:18.186Z,0.70
2019-03-04T11:56:47.557Z,0.62
2019-03-04T11:59:16.922Z,0.70
2019-03-04T12:01:47.963Z,0.70
2019-03-04T12:04:17.325Z,4.85
2019-03-04T12:06:46.692Z,0.78
2019-03-04T12:09:16.138Z,0.60
2019-03-04T12:11:45.505Z,1.62
2019-03-04T12:14:14.868Z,1.15
2019-03-04T12:16:45.343Z,0.65
2019-03-04T12:19:14.734Z,1.00
2019-03-04T12:21:44.095Z,1.10
2019-03-04T12:24:13.487Z,0.85
2019-03-04T12:26:44.405Z,0.72
2019-03-04T12:29:13.791Z,0.72
2019-03-04T12:31:44.832Z,0.80
2019-03-04T12:34:24.415Z,0.70
2019-03-04T12:36:46.936Z,0.80
2019-03-04T12:39:16.628Z,0.82
2019-03-04T12:41:46.845Z,0.90
2019-03-04T12:44:16.232Z,0.60
2019-03-04T12:46:45.628Z,0.90
2019-03-04T12:49:14.986Z,0.95
2019-03-04T12:51:44.342Z,0.90
2019-03-04T12:54:13.712Z,0.80
2019-03-04T12:56:43.082Z,0.95
2019-03-04T12:59:12.620Z,1.10
2019-03-04T13:01:42.266Z,0.90
2019-03-04T13:04:11.630Z,1.07
2019-03-04T13:06:40.994Z,0.85
2019-03-04T13:09:14.671Z,0.90
2019-03-04T13:11:41.467Z,1.05
2019-03-04T13:14:10.834Z,1.30
2019-03-04T13:16:40.220Z,1.13
2019-03-04T13:19:10.132Z,1.30
2019-03-04T13:21:39.492Z,0.80
2019-03-04T13:24:08.893Z,0.90
2019-03-04T13:26:38.263Z,1.10
2019-03-04T13:29:07.790Z,1.10
2019-03-04T13:31:37.188Z,1.07
2019-03-04T13:34:06.562Z,0.80
2019-03-04T13:36:35.950Z,1.10
2019-03-04T13:39:07.636Z,1.20
2019-03-04T13:41:37.538Z,0.70
2019-03-04T13:44:06.919Z,0.90
2019-03-04T13:46:36.557Z,1.00
2019-03-04T13:49:05.971Z,0.95
2019-03-04T13:51:35.377Z,1.00
2019-03-04T13:54:04.795Z,1.00
2019-03-04T13:56:34.431Z,0.60
2019-03-04T13:59:03.812Z,1.02
2019-03-04T14:01:33.258Z,0.62
2019-03-04T14:04:02.628Z,1.12
2019-03-04T14:06:31.997Z,1.20
2019-03-04T14:09:01.552Z,0.85
2019-03-04T14:11:30.916Z,0.90
2019-03-04T14:14:01.984Z,0.98
2019-03-04T14:16:31.564Z,1.45
2019-03-04T14:19:00.941Z,0.98
2019-03-04T14:21:30.623Z,0.88
2019-03-04T14:24:00.000Z,0.70
2019-03-04T14:26:29.360Z,0.80
2019-03-04T14:28:58.730Z,1.30
2019-03-04T14:31:28.137Z,2.30
2019-03-04T14:33:57.517Z,1.20
2019-03-04T14:36:26.902Z,0.80
2019-03-04T14:38:56.525Z,0.70
2019-03-04T14:41:25.892Z,0.72
2019-03-04T14:43:55.260Z,0.80
2019-03-04T14:46:25.177Z,0.80
2019-03-04T14:48:54.541Z,0.90
2019-03-04T14:51:24.079Z,0.95
2019-03-04T14:53:53.816Z,1.15
2019-03-04T14:56:23.201Z,1.15
2019-03-04T14:59:09.896Z,1.07
2019-03-04T15:01:23.672Z,0.90
2019-03-04T15:03:53.053Z,0.90
2019-03-04T15:06:22.412Z,1.10
2019-03-04T15:08:51.786Z,1.17
2019-03-04T15:11:21.155Z,3.10
2019-03-04T15:13:50.529Z,1.95
2019-03-04T15:16:20.307Z,1.32
2019-03-04T15:18:49.631Z,0.98
2019-03-04T15:21:19.025Z,1.02
2019-03-04T15:23:48.601Z,1.35
2019-03-04T15:26:18.032Z,1.47
2019-03-04T15:28:47.408Z,1.17
2019-03-04T15:31:16.786Z,1.30
2019-03-04T15:33:46.149Z,1.30
2019-03-04T15:36:15.533Z,1.10
2019-03-04T15:38:44.966Z,5.55
2019-03-04T15:41:14.654Z,1.10
2019-03-04T15:43:44.012Z,0.85
2019-03-04T15:46:13.393Z,0.82
2019-03-04T15:48:42.769Z,1.40
2019-03-04T15:51:12.163Z,1.40
2019-03-04T15:53:43.492Z,1.32
2019-03-04T15:56:12.657Z,1.22
2019-03-04T15:58:42.015Z,1.32
2019-03-04T16:01:12.685Z,0.85
2019-03-04T16:03:42.058Z,1.30
2019-03-04T16:06:11.441Z,1.72
2019-03-04T16:08:40.895Z,1.72
2019-03-04T16:11:10.604Z,1.40
2019-03-04T16:13:39.979Z,0.80
2019-03-04T16:16:09.412Z,0.55
2019-03-04T16:18:38.785Z,0.80
2019-03-04T16:21:08.166Z,0.60
2019-03-04T16:23:37.938Z,1.00
2019-03-04T16:26:10.571Z,0.80
2019-03-04T16:28:40.005Z,0.93
2019-03-04T16:31:09.411Z,0.80
2019-03-04T16:33:39.535Z,0.80
2019-03-04T16:36:08.936Z,0.60
2019-03-04T16:38:38.320Z,0.53
2019-03-04T16:41:07.690Z,0.47
2019-03-04T16:43:37.057Z,0.68
2019-03-04T16:46:06.466Z,0.47
2019-03-04T16:48:35.821Z,0.60
2019-03-04T16:51:05.989Z,1.57
2019-03-04T16:53:36.082Z,0.62
2019-03-04T16:56:05.473Z,0.80
2019-03-04T16:58:34.837Z,0.55
2019-03-04T17:01:04.296Z,0.68
2019-03-04T17:03:33.660Z,0.62
2019-03-04T17:06:03.029Z,0.50
2019-03-04T17:08:32.426Z,0.80
2019-03-04T17:11:01.867Z,0.72
2019-03-04T17:13:31.225Z,0.90
2019-03-04T17:16:00.615Z,1.07
2019-03-04T17:18:29.978Z,0.80
2019-03-04T17:20:59.612Z,1.00
2019-03-04T17:23:28.981Z,0.62
2019-03-04T17:25:58.353Z,1.30
2019-03-04T17:28:28.087Z,1.20
2019-03-04T17:30:57.486Z,1.60
2019-03-04T17:33:26.852Z,1.17
2019-03-04T17:35:56.225Z,1.00
2019-03-04T17:38:25.610Z,1.10
2019-03-04T17:40:54.998Z,1.20
2019-03-04T17:43:24.355Z,1.20
2019-03-04T17:45:53.730Z,1.17
2019-03-04T17:48:23.095Z,0.90
2019-03-04T17:50:52.471Z,1.10
2019-03-04T17:53:22.385Z,1.92
2019-03-04T17:55:51.743Z,1.40
2019-03-04T17:58:21.127Z,1.50
2019-03-04T18:00:55.117Z,1.32
2019-03-04T18:03:24.485Z,1.27
2019-03-04T18:05:54.891Z,3.22
2019-03-04T18:08:24.578Z,1.20
2019-03-04T18:10:53.969Z,1.45
2019-03-04T18:13:23.353Z,1.10
2019-03-04T18:15:52.738Z,1.12
2019-03-04T18:18:22.163Z,1.62
2019-03-04T18:20:51.527Z,1.22
2019-03-04T18:23:20.947Z,1.32
2019-03-04T18:26:03.647Z,1.42
2019-03-04T18:28:57.226Z,1.30
2019-03-04T18:31:35.361Z,1.45
2019-03-04T18:34:17.846Z,1.50
2019-03-04T18:37:19.378Z,1.45
2019-03-04T18:40:13.310Z,1.90
2019-03-04T18:43:12.652Z,1.50
2019-03-04T18:45:49.272Z,2.05
2019-03-04T18:48:28.663Z,1.52
2019-03-04T18:50:58.055Z,1.70
2019-03-04T18:53:27.422Z,1.77
2019-03-04T18:55:56.791Z,3.20
2019-03-04T18:58:26.483Z,2.45
2019-03-04T19:00:55.866Z,1.85
2019-03-04T19:03:25.225Z,1.65
2019-03-04T19:05:54.621Z,1.80
2019-03-04T19:08:23.988Z,2.00
2019-03-04T19:10:53.492Z,2.80
2019-03-04T19:13:22.930Z,2.27
2019-03-04T19:15:52.316Z,2.00
2019-03-04T19:18:21.692Z,1.80
2019-03-04T19:20:51.069Z,2.00
2019-03-04T19:23:20.443Z,1.87
2019-03-04T19:25:50.126Z,2.10
2019-03-04T19:28:19.557Z,1.87
2019-03-04T19:30:48.964Z,1.85
2019-03-04T19:33:19.165Z,1.52
2019-03-04T19:35:48.554Z,1.77
2019-03-04T19:38:17.931Z,1.50
2019-03-04T19:40:47.306Z,2.50
2019-03-04T19:43:16.671Z,1.90
2019-03-04T19:45:46.777Z,1.67
2019-03-04T19:48:16.284Z,1.98
2019-03-04T19:50:45.946Z,1.72
2019-03-04T19:53:15.346Z,1.77
2019-03-04T19:55:44.879Z,1.87
2019-03-04T19:58:14.352Z,1.67
2019-03-04T20:00:43.861Z,2.00
2019-03-04T20:03:13.239Z,1.87
2019-03-04T20:05:43.783Z,2.50
2019-03-04T20:08:13.846Z,2.02
2019-03-04T20:10:43.792Z,2.00
2019-03-04T20:13:13.202Z,1.98
2019-03-04T20:15:43.005Z,2.05
2019-03-04T20:18:12.392Z,2.08
2019-03-04T20:20:42.380Z,2.12
2019-03-04T20:23:11.749Z,1.77
2019-03-04T20:25:41.133Z,1.60
2019-03-04T20:28:11.866Z,1.67
2019-03-04T20:30:41.387Z,1.60
2019-03-04T20:33:10.739Z,1.77
2019-03-04T20:35:40.131Z,1.70
2019-03-04T20:38:22.794Z,1.87
2019-03-04T20:40:52.202Z,1.77
2019-03-04T20:43:21.561Z,1.72
2019-03-04T20:45:50.929Z,1.85
2019-03-04T20:48:20.334Z,1.72
2019-03-04T20:50:49.697Z,1.82
2019-03-04T20:53:19.148Z,2.25
2019-03-04T20:55:48.529Z,1.72
2019-03-04T20:58:17.918Z,1.80
2019-03-04T21:00:47.358Z,1.70
2019-03-04T21:03:17.047Z,1.92
2019-03-04T21:05:46.410Z,2.15
2019-03-04T21:08:16.118Z,1.87
2019-03-04T21:10:45.628Z,2.10
2019-03-04T21:13:16.897Z,2.05
2019-03-04T21:15:46.319Z,1.70
2019-03-04T21:18:15.772Z,1.60
2019-03-04T21:20:45.203Z,1.87
2019-03-04T21:23:14.639Z,1.92
2019-03-04T21:26:09.491Z,1.70
2019-03-04T21:29:04.410Z,2.05
2019-03-04T21:31:44.623Z,1.82
2019-03-04T21:34:47.493Z,1.70
2019-03-04T21:37:27.386Z,2.20
2019-03-04T21:40:01.409Z,1.70
2019-03-04T21:42:40.882Z,1.80
2019-03-04T21:45:20.184Z,2.25
2019-03-04T21:48:06.282Z,1.80
2019-03-04T21:51:00.508Z,1.82
2019-03-04T21:53:49.077Z,2.20
2019-03-04T21:56:35.022Z,2.10
2019-03-04T21:59:07.758Z,2.00
2019-03-04T22:01:47.212Z,2.20
2019-03-04T22:04:16.605Z,2.17
2019-03-04T22:06:46.008Z,2.35
2019-03-04T22:09:15.988Z,1.75
2019-03-04T22:11:45.380Z,2.15
2019-03-04T22:14:14.962Z,2.70
2019-03-04T22:16:44.358Z,2.25
2019-03-04T22:19:14.018Z,2.25
2019-03-04T22:21:43.406Z,2.47
2019-03-04T22:24:12.744Z,2.40
2019-03-04T22:26:42.119Z,2.50
2019-03-04T22:29:11.502Z,2.55
2019-03-04T22:31:40.852Z,3.22
2019-03-04T22:34:10.247Z,2.85
2019-03-04T22:36:42.539Z,2.42
2019-03-04T22:39:11.962Z,2.92
2019-03-04T22:41:41.380Z,2.40
2019-03-04T22:44:10.772Z,2.80
2019-03-04T22:46:40.200Z,2.75
2019-03-04T22:49:09.547Z,2.25
2019-03-04T22:51:38.927Z,2.55
2019-03-04T22:54:08.301Z,2.72
2019-03-04T22:56:37.854Z,2.77
2019-03-04T22:59:07.215Z,2.80
2019-03-04T23:01:42.911Z,2.40
2019-03-04T23:04:17.170Z,2.55
2019-03-04T23:09:19.723Z,2.47
2019-03-04T23:12:05.036Z,2.20
2019-03-04T23:14:34.410Z,2.80
2019-03-04T23:17:04.241Z,2.40
2019-03-04T23:19:33.839Z,2.33
2019-03-04T23:22:03.212Z,2.13
2019-03-04T23:24:32.578Z,2.75
2019-03-04T23:27:01.969Z,2.47
2019-03-04T23:29:31.337Z,2.47
2019-03-04T23:32:00.714Z,2.62
2019-03-04T23:34:30.084Z,2.77
2019-03-04T23:36:59.467Z,2.58
2019-03-04T23:39:28.854Z,2.75
2019-03-04T23:41:58.241Z,2.40
2019-03-04T23:44:27.628Z,2.87
2019-03-04T23:46:56.989Z,2.65
2019-03-04T23:49:26.355Z,2.90
2019-03-04T23:51:55.726Z,2.30
2019-03-04T23:54:25.103Z,3.30
2019-03-04T23:56:54.467Z,2.60
2019-03-04T23:59:23.824Z,2.92
